createdAt,value
2019-02-26T00:04:54.085Z,99833.00
2019-02-26T00:10:02.569Z,99836.00
2019-02-26T00:15:12.853Z,99834.00
2019-02-26T00:20:19.504Z,99825.00
2019-02-26T00:25:26.382Z,99822.00
2019-02-26T00:30:35.583Z,99826.00
2019-02-26T00:35:42.171Z,99822.00
2019-02-26T00:40:49.258Z,99810.00
2019-02-26T00:45:58.290Z,99800.00
2019-02-26T00:51:04.457Z,99789.00
2019-02-26T00:56:11.765Z,99796.00
2019-02-26T01:01:21.195Z,99799.00
2019-02-26T01:06:29.429Z,99802.00
2019-02-26T01:11:37.169Z,99806.00
2019-02-26T01:16:45.940Z,99811.00
2019-02-26T01:21:52.715Z,99812.00
2019-02-26T01:26:59.728Z,99807.00
2019-02-26T01:32:08.897Z,99797.00
2019-02-26T01:37:28.218Z,99779.00
2019-02-26T01:42:36.688Z,99773.00
2019-02-26T01:47:46.229Z,99759.00
2019-02-26T01:52:52.344Z,99744.00
2019-02-26T01:57:59.882Z,99737.00
2019-02-26T02:03:06.824Z,99730.00
2019-02-26T02:08:32.070Z,99729.00
2019-02-26T02:13:41.433Z,99716.00
2019-02-26T02:18:48.841Z,99723.00
2019-02-26T02:23:55.016Z,99729.00
2019-02-26T02:29:24.530Z,99734.00
2019-02-26T02:34:32.974Z,99729.00
2019-02-26T02:39:40.262Z,99717.00
2019-02-26T02:44:46.898Z,99703.00
2019-02-26T02:49:55.446Z,99695.00
2019-02-26T02:55:04.403Z,99697.00
2019-02-26T03:00:16.047Z,99715.00
2019-02-26T03:05:23.327Z,99707.00
2019-02-26T03:10:31.690Z,99718.00
2019-02-26T03:15:38.664Z,99702.00
2019-02-26T03:20:44.723Z,99695.00
2019-02-26T03:25:52.890Z,99696.00
2019-02-26T03:30:59.040Z,99721.00
2019-02-26T03:36:07.941Z,99716.00
2019-02-26T03:41:13.805Z,99712.00
2019-02-26T03:46:20.318Z,99708.00
2019-02-26T03:51:26.830Z,99693.00
2019-02-26T03:56:33.768Z,99698.00
2019-02-26T04:01:40.640Z,99725.00
2019-02-26T04:06:47.224Z,99732.00
2019-02-26T04:11:55.420Z,99711.00
2019-02-26T04:17:04.134Z,99715.00
2019-02-26T04:22:30.642Z,99709.00
2019-02-26T04:27:51.416Z,99727.00
2019-02-26T04:33:53.711Z,99715.00
2019-02-26T04:39:34.487Z,99726.00
2019-02-26T04:45:24.734Z,99714.00
2019-02-26T04:50:44.574Z,99696.00
2019-02-26T04:55:51.861Z,99685.00
2019-02-26T05:00:58.453Z,99666.00
2019-02-26T05:06:07.857Z,99667.00
2019-02-26T05:11:17.449Z,99681.00
2019-02-26T05:16:26.051Z,99679.00
2019-02-26T05:21:31.905Z,99684.00
2019-02-26T05:26:38.135Z,99690.00
2019-02-26T05:31:44.133Z,99677.00
2019-02-26T05:36:50.092Z,99671.00
2019-02-26T05:42:00.213Z,99696.00
2019-02-26T05:47:05.092Z,99693.00
2019-02-26T05:52:13.124Z,99694.00
2019-02-26T05:57:27.631Z,99685.00
2019-02-26T06:02:29.360Z,99696.00
2019-02-26T06:07:38.584Z,99691.00
2019-02-26T06:12:46.631Z,99697.00
2019-02-26T06:17:53.496Z,99702.00
2019-02-26T06:23:00.118Z,99685.00
2019-02-26T06:28:07.707Z,99691.00
2019-02-26T06:33:16.396Z,99693.00
2019-02-26T06:38:25.867Z,99696.00
2019-02-26T06:43:35.486Z,99698.00
2019-02-26T06:48:40.716Z,99693.00
2019-02-26T06:53:49.260Z,99699.00
2019-02-26T06:58:55.258Z,99691.00
2019-02-26T07:04:01.982Z,99708.00
2019-02-26T07:09:10.832Z,99708.00
2019-02-26T07:14:17.326Z,99707.00
2019-02-26T07:19:25.870Z,99712.00
2019-02-26T07:25:07.842Z,99713.00
2019-02-26T07:30:14.781Z,99700.00
2019-02-26T07:35:22.414Z,99706.00
2019-02-26T07:40:30.567Z,99683.00
2019-02-26T07:45:37.726Z,99695.00
2019-02-26T07:50:46.336Z,99698.00
2019-02-26T07:55:53.951Z,99692.00
2019-02-26T08:01:00.862Z,99710.00
2019-02-26T08:06:09.790Z,99695.00
2019-02-26T08:11:17.178Z,99691.00
2019-02-26T08:16:25.815Z,99697.00
2019-02-26T08:21:32.608Z,99701.00
2019-02-26T08:26:40.536Z,99710.00
2019-02-26T08:31:49.380Z,99695.00
2019-02-26T08:36:55.470Z,99700.00
2019-02-26T08:42:10.072Z,99681.00
2019-02-26T08:47:19.245Z,99691.00
2019-02-26T08:52:26.914Z,99684.00
2019-02-26T08:57:33.890Z,99699.00
2019-02-26T09:02:59.548Z,99702.00
2019-02-26T09:08:08.383Z,99685.00
2019-02-26T09:13:16.387Z,99705.00
2019-02-26T09:18:27.439Z,99712.00
2019-02-26T09:23:33.476Z,99720.00
2019-02-26T09:28:41.855Z,99717.00
2019-02-26T09:33:49.259Z,99718.00
2019-02-26T09:38:55.227Z,99729.00
2019-02-26T09:44:04.187Z,99728.00
2019-02-26T09:49:12.468Z,99728.00
2019-02-26T09:54:40.288Z,99726.00
2019-02-26T09:59:45.529Z,99730.00
2019-02-26T10:04:51.896Z,99730.00
2019-02-26T10:10:01.163Z,99733.00
2019-02-26T10:15:12.617Z,99731.00
2019-02-26T10:20:31.685Z,99741.00
2019-02-26T10:25:38.890Z,99735.00
2019-02-26T10:30:45.013Z,99746.00
2019-02-26T10:35:51.039Z,99737.00
2019-02-26T10:40:59.185Z,99755.00
2019-02-26T10:46:06.994Z,99748.00
2019-02-26T10:51:16.883Z,99740.00
2019-02-26T10:56:23.625Z,99727.00
2019-02-26T11:01:31.534Z,99715.00
2019-02-26T11:06:43.753Z,99715.00
2019-02-26T11:11:50.382Z,99747.00
2019-02-26T11:16:57.622Z,99724.00
2019-02-26T11:22:05.987Z,99723.00
2019-02-26T11:27:14.189Z,99733.00
2019-02-26T11:32:20.945Z,99738.00
2019-02-26T11:37:29.528Z,99738.00
2019-02-26T11:42:37.526Z,99735.00
2019-02-26T11:47:45.143Z,99740.00
2019-02-26T11:52:54.287Z,99723.00
2019-02-26T11:57:59.739Z,99726.00
2019-02-26T12:03:06.782Z,99714.00
2019-02-26T12:08:16.715Z,99699.00
2019-02-26T12:13:27.631Z,99686.00
2019-02-26T12:18:34.256Z,99689.00
2019-02-26T12:23:44.132Z,99688.00
2019-02-26T12:28:49.771Z,99674.00
2019-02-26T12:33:57.763Z,99684.00
2019-02-26T12:39:07.211Z,99673.00
2019-02-26T12:44:16.259Z,99669.00
2019-02-26T12:49:23.334Z,99681.00
2019-02-26T12:54:33.567Z,99681.00
2019-02-26T12:59:39.627Z,99675.00
2019-02-26T13:04:48.067Z,99681.00
2019-02-26T13:09:56.098Z,99685.00
2019-02-26T13:15:05.438Z,99660.00
2019-02-26T13:20:22.525Z,99667.00
2019-02-26T13:25:29.717Z,99658.00
2019-02-26T13:30:37.595Z,99648.00
2019-02-26T13:35:46.914Z,99659.00
2019-02-26T13:41:02.278Z,99645.00
2019-02-26T13:46:03.058Z,99649.00
2019-02-26T13:51:10.024Z,99643.00
2019-02-26T13:56:17.107Z,99647.00
2019-02-26T14:01:24.138Z,99641.00
2019-02-26T14:06:32.055Z,99637.00
2019-02-26T14:11:41.198Z,99621.00
2019-02-26T14:16:48.780Z,99626.00
2019-02-26T14:21:57.537Z,99610.00
2019-02-26T14:27:06.033Z,99618.00
2019-02-26T14:32:17.386Z,99619.00
2019-02-26T14:37:28.508Z,99610.00
2019-02-26T14:48:31.559Z,99594.00
2019-02-26T14:54:06.465Z,99596.00
2019-02-26T14:59:15.099Z,99588.00
2019-02-26T15:04:41.529Z,99605.00
2019-02-26T15:09:48.533Z,99594.00
2019-02-26T15:14:56.357Z,99585.00
2019-02-26T15:20:04.800Z,99575.00
2019-02-26T15:25:20.502Z,99577.00
2019-02-26T15:30:27.746Z,99577.00
2019-02-26T15:35:34.835Z,99582.00
2019-02-26T15:40:43.879Z,99589.00
2019-02-26T15:45:52.160Z,99591.00
2019-02-26T15:50:59.864Z,99590.00
2019-02-26T15:56:08.003Z,99585.00
2019-02-26T16:01:16.565Z,99594.00
2019-02-26T16:06:22.617Z,99597.00
2019-02-26T16:11:30.701Z,99599.00
2019-02-26T16:16:37.829Z,99606.00
2019-02-26T16:21:45.458Z,99610.00
2019-02-26T16:26:52.362Z,99611.00
2019-02-26T16:31:59.411Z,99601.00
2019-02-26T16:37:07.884Z,99603.00
2019-02-26T16:42:15.226Z,99607.00
2019-02-26T16:47:22.770Z,99606.00
2019-02-26T16:52:30.466Z,99617.00
2019-02-26T16:57:37.678Z,99621.00
2019-02-26T17:02:44.910Z,99625.00
2019-02-26T17:07:51.409Z,99629.00
2019-02-26T17:13:05.607Z,99626.00
2019-02-26T17:18:12.506Z,99619.00
2019-02-26T17:23:20.711Z,99623.00
2019-02-26T17:28:28.269Z,99625.00
2019-02-26T17:33:35.752Z,99596.00
2019-02-26T17:44:17.122Z,99599.00
2019-02-26T17:49:33.652Z,99588.00
2019-02-26T17:54:49.913Z,99591.00
2019-02-26T17:59:58.282Z,99590.00
2019-02-26T18:05:07.586Z,99597.00
2019-02-26T18:10:18.474Z,99606.00
2019-02-26T18:15:26.993Z,99589.00
2019-02-26T18:26:32.257Z,99592.00
2019-02-26T18:31:40.686Z,99591.00
2019-02-26T18:36:47.343Z,99590.00
2019-02-26T18:41:54.727Z,99594.00
2019-02-26T18:47:06.778Z,99605.00
2019-02-26T18:52:11.833Z,99597.00
2019-02-26T18:57:18.694Z,99594.00
2019-02-26T19:02:25.937Z,99601.00
2019-02-26T19:07:33.796Z,99605.00
2019-02-26T19:12:41.078Z,99607.00
2019-02-26T19:17:50.278Z,99615.00
2019-02-26T19:22:58.788Z,99615.00
2019-02-26T19:28:05.497Z,99603.00
2019-02-26T19:33:13.156Z,99603.00
2019-02-26T19:38:20.965Z,99608.00
2019-02-26T19:43:28.922Z,99609.00
2019-02-26T19:48:36.493Z,99597.00
2019-02-26T19:53:43.082Z,99615.00
2019-02-26T19:58:49.414Z,99609.00
2019-02-26T20:03:55.554Z,99614.00
2019-02-26T20:09:05.807Z,99606.00
2019-02-26T20:14:14.776Z,99614.00
2019-02-26T20:19:22.555Z,99601.00
2019-02-26T20:24:30.490Z,99615.00
2019-02-26T20:29:40.155Z,99604.00
2019-02-26T20:34:46.150Z,99600.00
2019-02-26T20:39:52.158Z,99588.00
2019-02-26T20:44:59.099Z,99598.00
2019-02-26T20:50:10.210Z,99594.00
2019-02-26T20:55:21.176Z,99584.00
2019-02-26T21:00:28.129Z,99583.00
2019-02-26T21:05:35.320Z,99591.00
2019-02-26T21:10:42.445Z,99577.00
2019-02-26T21:15:48.975Z,99575.00
2019-02-26T21:20:56.774Z,99571.00
2019-02-26T21:26:03.506Z,99590.00
2019-02-26T21:31:09.520Z,99592.00
2019-02-26T21:36:18.256Z,99581.00
2019-02-26T21:41:25.121Z,99579.00
2019-02-26T21:46:32.042Z,99568.00
2019-02-26T21:51:38.952Z,99556.00
2019-02-26T21:56:48.707Z,99564.00
2019-02-26T22:02:18.593Z,99552.00
2019-02-26T22:07:23.432Z,99549.00
2019-02-26T22:12:30.239Z,99539.00
2019-02-26T22:17:37.491Z,99543.00
2019-02-26T22:22:44.149Z,99532.00
2019-02-26T22:27:51.651Z,99531.00
2019-02-26T22:32:57.596Z,99519.00
2019-02-26T22:38:03.601Z,99521.00
2019-02-26T22:43:13.413Z,99528.00
2019-02-26T22:48:17.449Z,99531.00
2019-02-26T22:53:23.662Z,99526.00
2019-02-26T22:58:29.663Z,99526.00
2019-02-26T23:03:37.425Z,99523.00
2019-02-26T23:08:44.748Z,99515.00
2019-02-26T23:13:54.200Z,99506.00
2019-02-26T23:19:03.819Z,99503.00
2019-02-26T23:24:11.444Z,99496.00
2019-02-26T23:29:19.077Z,99498.00
2019-02-26T23:34:25.062Z,99500.00
2019-02-26T23:39:31.214Z,99498.00
2019-02-26T23:44:57.194Z,99499.00
2019-02-26T23:50:05.153Z,99509.00
2019-02-26T23:55:33.915Z,99508.00
